Time;durP1;ratioP1;P1;durP2;ratioP2;P2;SDS_P1;SDS_P2;PMS_P1;PMS_P2;Temp;Humidity;BMP_temperature;BMP_pressure;BME280_temperature;BME280_humidity;BME280_pressure;Samples;Min_cycle;Max_cycle;Signal;HPM_P1;HPM_P2
2022/04/07 00:00:24;;;;;;;15.47;6.23;;;;;;;;;;4447437;32;20367;-53
2022/04/07 00:02:49;;;;;;;12.23;6.30;;;;;;;;;;4447953;32;20858;-53
2022/04/07 00:05:15;;;;;;;13.93;6.63;;;;;;;;;;4447831;32;20291;-53
2022/04/07 00:07:40;;;;;;;12.03;6.80;;;;;;;;;;4448133;32;20287;-53
2022/04/07 00:10:06;;;;;;;19.93;7.67;;;;;;;;;;4447957;32;20276;-53
2022/04/07 00:12:34;;;;;;;13.80;7.93;;;;;;;;;;4450386;32;20253;-53
2022/04/07 00:15:01;;;;;;;16.77;6.97;;;;;;;;;;4450479;32;20315;-54
2022/04/07 00:17:27;;;;;;;16.77;6.90;;;;;;;;;;4447907;32;20369;-53
2022/04/07 00:19:53;;;;;;;11.53;6.10;;;;;;;;;;4447519;32;20221;-54
2022/04/07 00:22:19;;;;;;;22.17;7.40;;;;;;;;;;4446169;32;20270;-53
2022/04/07 00:24:44;;;;;;;14.03;6.60;;;;;;;;;;4447886;32;20604;-54
2022/04/07 00:27:10;;;;;;;14.27;6.90;;;;;;;;;;4447585;32;20224;-54
2022/04/07 00:29:36;;;;;;;18.00;6.33;;;;;;;;;;4447818;32;20283;-55
2022/04/07 00:32:05;;;;;;;10.03;5.93;;;;;;;;;;4447547;32;20681;-52
2022/04/07 00:34:32;;;;;;;10.93;5.20;;;;;;;;;;4447785;32;20245;-52
2022/04/07 00:36:57;;;;;;;9.90;5.90;;;;;;;;;;4447880;32;20307;-53
2022/04/07 00:39:23;;;;;;;9.07;5.60;;;;;;;;;;4447464;32;20250;-51
2022/04/07 00:41:49;;;;;;;18.37;7.07;;;;;;;;;;4447790;32;20553;-52
2022/04/07 00:44:15;;;;;;;18.87;6.37;;;;;;;;;;4447699;32;20232;-52
2022/04/07 00:46:41;;;;;;;21.10;6.40;;;;;;;;;;4448070;32;20291;-52
2022/04/07 00:49:08;;;;;;;15.40;6.30;;;;;;;;;;4447916;32;20228;-52
2022/04/07 00:51:34;;;;;;;17.27;5.67;;;;;;;;;;4447849;32;20196;-52
2022/04/07 00:54:00;;;;;;;13.37;6.70;;;;;;;;;;4447592;32;20307;-54
2022/04/07 00:56:26;;;;;;;16.50;5.67;;;;;;;;;;4446188;32;20295;-53
2022/04/07 00:58:53;;;;;;;11.63;5.50;;;;;;;;;;4447892;32;20634;-53
2022/04/07 01:01:22;;;;;;;12.00;5.07;;;;;;;;;;4446568;32;20608;-55
2022/04/07 01:03:49;;;;;;;11.03;5.53;;;;;;;;;;4447590;32;20261;-55
2022/04/07 01:06:15;;;;;;;20.47;8.80;;;;;;;;;;4455338;32;20216;-54
2022/04/07 01:08:41;;;;;;;18.70;8.40;;;;;;;;;;4463277;32;20679;-53
2022/04/07 01:11:08;;;;;;;16.97;7.37;;;;;;;;;;4460857;32;20309;-53
2022/04/07 01:13:47;;;;;;;13.23;7.57;;;;;;;;;;4462657;32;20274;-53
2022/04/07 01:16:13;;;;;;;19.93;8.07;;;;;;;;;;4449303;32;20235;-53
2022/04/07 01:18:39;;;;;;;13.63;6.87;;;;;;;;;;4446240;32;20240;-53
2022/04/07 01:21:06;;;;;;;15.10;6.27;;;;;;;;;;4445977;32;20341;-53
2022/04/07 01:23:35;;;;;;;11.33;6.93;;;;;;;;;;4447434;32;20286;-52
2022/04/07 01:26:04;;;;;;;10.73;6.10;;;;;;;;;;4447032;32;20278;-52
2022/04/07 01:28:29;;;;;;;13.20;6.87;;;;;;;;;;4447122;32;20368;-51
2022/04/07 01:30:55;;;;;;;13.27;6.80;;;;;;;;;;4447803;32;20288;-51
2022/04/07 01:33:21;;;;;;;12.47;6.17;;;;;;;;;;4447355;32;20239;-51
2022/04/07 01:35:46;;;;;;;11.53;6.10;;;;;;;;;;4447227;32;20736;-53
2022/04/07 01:38:12;;;;;;;18.70;6.53;;;;;;;;;;4447191;32;20259;-52
2022/04/07 01:40:38;;;;;;;12.07;3.40;;;;;;;;;;4447632;32;20295;-54
2022/04/07 01:43:07;;;;;;;8.77;4.13;;;;;;;;;;4446878;32;20255;-51
2022/04/07 01:45:34;;;;;;;10.97;5.27;;;;;;;;;;4447033;32;20628;-52
2022/04/07 01:48:02;;;;;;;14.37;5.73;;;;;;;;;;4447082;32;20347;-51
2022/04/07 01:50:29;;;;;;;13.07;7.13;;;;;;;;;;4458938;32;20724;-52
2022/04/07 01:52:56;;;;;;;8.80;4.57;;;;;;;;;;4462640;32;20224;-52
2022/04/07 01:55:22;;;;;;;10.90;4.10;;;;;;;;;;4462543;32;20593;-51
2022/04/07 01:57:49;;;;;;;9.13;3.77;;;;;;;;;;4451034;32;20213;-52
2022/04/07 02:00:15;;;;;;;7.03;3.60;;;;;;;;;;4447026;32;20192;-53
2022/04/07 02:02:41;;;;;;;6.67;3.57;;;;;;;;;;4447023;32;20263;-51
2022/04/07 02:05:09;;;;;;;6.10;4.10;;;;;;;;;;4446960;32;20295;-52
2022/04/07 02:07:36;;;;;;;10.10;3.80;;;;;;;;;;4446948;32;20232;-52
2022/04/07 02:10:03;;;;;;;9.80;5.03;;;;;;;;;;4446953;32;20676;-53
2022/04/07 02:12:29;;;;;;;9.67;5.53;;;;;;;;;;4448336;32;20285;-53
2022/04/07 02:14:55;;;;;;;7.63;4.57;;;;;;;;;;4449275;32;20291;-54
2022/04/07 02:17:22;;;;;;;8.60;5.30;;;;;;;;;;4447162;32;20236;-52
2022/04/07 02:19:54;;;;;;;8.87;5.40;;;;;;;;;;4447070;32;20692;-53
2022/04/07 02:22:20;;;;;;;12.37;6.07;;;;;;;;;;4446870;32;20291;-52
2022/04/07 02:24:47;;;;;;;11.10;4.37;;;;;;;;;;4449447;32;20336;-53
2022/04/07 02:27:13;;;;;;;10.87;4.73;;;;;;;;;;4449457;32;20227;-52
2022/04/07 02:29:39;;;;;;;8.67;4.13;;;;;;;;;;4449728;32;20346;-54
2022/04/07 02:32:05;;;;;;;7.13;4.07;;;;;;;;;;4449986;32;20201;-52
2022/04/07 02:34:30;;;;;;;7.80;3.93;;;;;;;;;;4449767;32;20248;-53
2022/04/07 02:36:56;;;;;;;5.23;3.60;;;;;;;;;;4449592;32;20236;-52
2022/04/07 02:39:21;;;;;;;5.70;3.80;;;;;;;;;;4449424;32;20288;-52
2022/04/07 02:41:47;;;;;;;9.70;3.77;;;;;;;;;;4449628;32;20263;-52
2022/04/07 02:44:12;;;;;;;13.73;4.13;;;;;;;;;;4449797;32;20311;-52
2022/04/07 02:46:38;;;;;;;6.10;4.03;;;;;;;;;;4449686;32;20551;-53
2022/04/07 02:49:04;;;;;;;9.93;4.33;;;;;;;;;;4449682;32;20233;-52
2022/04/07 02:51:31;;;;;;;8.57;4.40;;;;;;;;;;4457161;32;20330;-53
2022/04/07 02:53:58;;;;;;;12.17;3.73;;;;;;;;;;4465253;32;20236;-53
2022/04/07 02:56:28;;;;;;;7.17;4.00;;;;;;;;;;4465124;32;20396;-54
2022/04/07 02:58:54;;;;;;;5.40;3.30;;;;;;;;;;4465119;32;20506;-53
2022/04/07 03:01:19;;;;;;;8.50;3.60;;;;;;;;;;4465196;32;20704;-53
2022/04/07 03:03:45;;;;;;;16.77;4.93;;;;;;;;;;4464809;32;20243;-52
2022/04/07 03:06:10;;;;;;;5.47;3.80;;;;;;;;;;4449263;32;20794;-53
2022/04/07 03:08:36;;;;;;;5.93;3.90;;;;;;;;;;4449244;32;20296;-53
2022/04/07 03:11:02;;;;;;;13.37;4.67;;;;;;;;;;4448787;32;20581;-53
2022/04/07 03:13:28;;;;;;;19.80;6.50;;;;;;;;;;4463303;32;20530;-54
2022/04/07 03:15:53;;;;;;;13.43;4.77;;;;;;;;;;4453780;32;20733;-53
2022/04/07 03:18:20;;;;;;;17.43;5.57;;;;;;;;;;4449245;32;20232;-53
2022/04/07 03:20:45;;;;;;;7.63;4.60;;;;;;;;;;4449449;32;20295;-52
2022/04/07 03:23:11;;;;;;;10.60;4.90;;;;;;;;;;4449126;32;20553;-52
2022/04/07 03:25:37;;;;;;;10.77;5.00;;;;;;;;;;4449408;32;20330;-54
2022/04/07 03:28:04;;;;;;;10.07;5.10;;;;;;;;;;4449447;32;20289;-52
2022/04/07 03:30:29;;;;;;;20.83;6.13;;;;;;;;;;4449998;32;20636;-53
2022/04/07 03:32:55;;;;;;;8.67;4.43;;;;;;;;;;4450401;32;20220;-52
2022/04/07 03:35:20;;;;;;;12.27;4.60;;;;;;;;;;4448825;32;20310;-52
2022/04/07 03:37:46;;;;;;;14.93;4.73;;;;;;;;;;4449961;32;20299;-53
2022/04/07 03:40:12;;;;;;;8.77;4.63;;;;;;;;;;4449719;32;20321;-53
2022/04/07 03:42:38;;;;;;;10.20;3.90;;;;;;;;;;4456276;32;20247;-52
2022/04/07 03:45:04;;;;;;;9.37;4.80;;;;;;;;;;4464627;32;20287;-53
2022/04/07 03:47:30;;;;;;;9.97;4.93;;;;;;;;;;4463989;32;20308;-53
2022/04/07 03:49:56;;;;;;;10.50;6.07;;;;;;;;;;4464704;32;20221;-52
2022/04/07 03:52:21;;;;;;;13.37;6.67;;;;;;;;;;4464170;32;20200;-53
2022/04/07 03:54:46;;;;;;;16.30;7.87;;;;;;;;;;4464317;32;20370;-52
2022/04/07 03:57:12;;;;;;;19.43;8.50;;;;;;;;;;4463957;32;20249;-53
2022/04/07 03:59:39;;;;;;;18.73;6.80;;;;;;;;;;4464283;32;20351;-53
2022/04/07 04:02:06;;;;;;;19.17;8.60;;;;;;;;;;4464526;32;20207;-53
2022/04/07 04:04:32;;;;;;;16.47;8.30;;;;;;;;;;4459698;32;20353;-53
2022/04/07 04:06:58;;;;;;;10.30;6.80;;;;;;;;;;4448569;32;20538;-54
2022/04/07 04:09:23;;;;;;;12.43;6.67;;;;;;;;;;4448956;32;20300;-53
2022/04/07 04:11:49;;;;;;;19.07;8.83;;;;;;;;;;4452280;32;20570;-52
2022/04/07 04:14:14;;;;;;;22.97;12.70;;;;;;;;;;4462942;32;20262;-53
2022/04/07 04:16:41;;;;;;;25.33;12.43;;;;;;;;;;4463835;32;20303;-52
2022/04/07 04:19:07;;;;;;;20.87;11.57;;;;;;;;;;4463839;32;20311;-53
2022/04/07 04:21:32;;;;;;;24.70;12.37;;;;;;;;;;4463938;32;20258;-52
2022/04/07 04:23:58;;;;;;;32.73;17.03;;;;;;;;;;4463724;32;20243;-52
2022/04/07 04:26:23;;;;;;;31.97;16.63;;;;;;;;;;4463472;32;20228;-53
2022/04/07 04:28:48;;;;;;;33.13;19.77;;;;;;;;;;4462701;32;20240;-52
2022/04/07 04:31:14;;;;;;;33.73;16.90;;;;;;;;;;4463865;32;20321;-53
2022/04/07 04:33:39;;;;;;;29.40;13.50;;;;;;;;;;4463559;32;20339;-54
2022/04/07 04:36:05;;;;;;;33.67;12.67;;;;;;;;;;4463479;32;20290;-53
2022/04/07 04:38:30;;;;;;;20.67;9.87;;;;;;;;;;4463421;32;20350;-54
2022/04/07 04:40:56;;;;;;;19.87;9.03;;;;;;;;;;4462036;32;20785;-54
2022/04/07 04:43:21;;;;;;;20.93;8.90;;;;;;;;;;4451597;32;20255;-53
2022/04/07 04:45:47;;;;;;;17.17;8.87;;;;;;;;;;4447903;32;20665;-54
2022/04/07 04:48:12;;;;;;;19.50;8.33;;;;;;;;;;4447274;32;20244;-54
2022/04/07 04:50:38;;;;;;;24.13;9.23;;;;;;;;;;4448092;32;20313;-53
2022/04/07 04:53:04;;;;;;;20.20;9.50;;;;;;;;;;4446387;32;20235;-54
2022/04/07 04:55:29;;;;;;;20.80;9.83;;;;;;;;;;4447360;32;20719;-55
2022/04/07 04:57:55;;;;;;;17.50;9.50;;;;;;;;;;4447379;32;20256;-54
2022/04/07 05:00:20;;;;;;;22.97;9.07;;;;;;;;;;4447436;32;20582;-54
2022/04/07 05:02:45;;;;;;;21.43;8.73;;;;;;;;;;4446842;32;20673;-55
2022/04/07 05:05:12;;;;;;;12.70;7.50;;;;;;;;;;4446877;32;20704;-53
2022/04/07 05:07:38;;;;;;;13.77;6.67;;;;;;;;;;4446805;32;20292;-53
2022/04/07 05:10:05;;;;;;;17.00;6.70;;;;;;;;;;4446850;32;20337;-52
2022/04/07 05:12:31;;;;;;;16.27;7.80;;;;;;;;;;4449933;32;20671;-52
2022/04/07 05:14:56;;;;;;;15.03;7.60;;;;;;;;;;4446817;32;20339;-52
2022/04/07 05:17:22;;;;;;;11.77;6.53;;;;;;;;;;4447072;32;20242;-51
2022/04/07 05:19:49;;;;;;;16.53;7.30;;;;;;;;;;4446948;32;20429;-52
2022/04/07 05:22:14;;;;;;;19.70;8.90;;;;;;;;;;4446501;32;20208;-53
2022/04/07 05:24:40;;;;;;;21.37;9.73;;;;;;;;;;4447331;32;20771;-54
2022/04/07 05:27:05;;;;;;;19.93;8.70;;;;;;;;;;4445848;32;20204;-52
2022/04/07 05:29:31;;;;;;;15.63;8.60;;;;;;;;;;4446287;32;20306;-51
2022/04/07 05:31:56;;;;;;;20.20;11.63;;;;;;;;;;4446042;32;20345;-53
2022/04/07 05:34:22;;;;;;;19.53;10.50;;;;;;;;;;4445887;32;20304;-52
2022/04/07 05:36:47;;;;;;;27.70;10.10;;;;;;;;;;4444185;32;20260;-52
2022/04/07 05:39:13;;;;;;;22.60;11.20;;;;;;;;;;4443634;32;20236;-52
2022/04/07 05:41:39;;;;;;;31.93;16.33;;;;;;;;;;4443245;32;20216;-53
2022/04/07 05:44:05;;;;;;;28.37;13.80;;;;;;;;;;4444039;32;20259;-52
2022/04/07 05:46:31;;;;;;;20.40;10.50;;;;;;;;;;4445009;32;20529;-52
2022/04/07 05:48:56;;;;;;;25.90;8.93;;;;;;;;;;4445961;32;20240;-52
2022/04/07 05:51:21;;;;;;;12.53;7.77;;;;;;;;;;4446356;32;20514;-51
2022/04/07 05:53:47;;;;;;;26.17;11.17;;;;;;;;;;4445824;32;20244;-53
2022/04/07 05:56:12;;;;;;;22.63;10.50;;;;;;;;;;4446218;32;20685;-52
2022/04/07 05:58:38;;;;;;;24.60;10.60;;;;;;;;;;4446212;32;20670;-52
2022/04/07 06:01:03;;;;;;;23.87;9.93;;;;;;;;;;4448330;32;20847;-53
2022/04/07 06:03:31;;;;;;;21.17;11.70;;;;;;;;;;4447638;32;20267;-54
2022/04/07 06:05:57;;;;;;;23.50;10.67;;;;;;;;;;4452104;32;20228;-54
2022/04/07 06:08:23;;;;;;;26.03;13.63;;;;;;;;;;4445245;32;20248;-54
2022/04/07 06:10:48;;;;;;;27.57;14.23;;;;;;;;;;4445976;32;20298;-54
2022/04/07 06:13:14;;;;;;;23.00;12.17;;;;;;;;;;4446330;32;20288;-52
2022/04/07 06:15:40;;;;;;;26.00;12.13;;;;;;;;;;4447857;32;20358;-55
2022/04/07 06:18:06;;;;;;;20.03;9.30;;;;;;;;;;4447782;32;20717;-53
2022/04/07 06:20:32;;;;;;;13.67;8.47;;;;;;;;;;4448051;32;20499;-53
2022/04/07 06:22:57;;;;;;;14.53;7.80;;;;;;;;;;4448600;32;20234;-53
2022/04/07 06:25:23;;;;;;;24.17;9.43;;;;;;;;;;4449294;32;20291;-55
2022/04/07 06:27:49;;;;;;;14.00;8.07;;;;;;;;;;4449549;32;20552;-53
2022/04/07 06:30:16;;;;;;;10.33;6.83;;;;;;;;;;4449612;32;20747;-53
2022/04/07 06:32:44;;;;;;;11.20;6.53;;;;;;;;;;4464716;32;20212;-54
2022/04/07 06:35:11;;;;;;;9.63;6.30;;;;;;;;;;4464040;32;20281;-54
2022/04/07 06:37:49;;;;;;;13.53;6.70;;;;;;;;;;4465116;32;20274;-54
2022/04/07 06:40:17;;;;;;;14.70;7.63;;;;;;;;;;4465020;32;20554;-54
2022/04/07 06:42:42;;;;;;;23.83;5.90;;;;;;;;;;4457977;32;20589;-54
2022/04/07 06:45:08;;;;;;;13.73;5.00;;;;;;;;;;4449722;32;20364;-52
2022/04/07 06:47:39;;;;;;;10.23;5.00;;;;;;;;;;4449436;32;20219;-52
2022/04/07 06:50:10;;;;;;;9.83;4.60;;;;;;;;;;4449929;32;20200;-52
2022/04/07 06:52:36;;;;;;;26.73;6.03;;;;;;;;;;4448299;32;20282;-51
2022/04/07 06:55:02;;;;;;;15.60;7.00;;;;;;;;;;4450615;32;20295;-52
2022/04/07 06:57:27;;;;;;;14.47;6.77;;;;;;;;;;4449603;32;20641;-54
2022/04/07 06:59:53;;;;;;;14.20;6.97;;;;;;;;;;4448024;32;20344;-52
2022/04/07 07:02:18;;;;;;;13.10;6.13;;;;;;;;;;4449228;32;20291;-52
2022/04/07 07:04:44;;;;;;;25.67;15.00;;;;;;;;;;4451173;32;20287;-52
2022/04/07 07:07:11;;;;;;;23.80;11.77;;;;;;;;;;4448944;32;20726;-53
2022/04/07 07:09:37;;;;;;;34.40;14.23;;;;;;;;;;4448665;32;20380;-52
2022/04/07 07:12:03;;;;;;;23.53;11.93;;;;;;;;;;4457174;32;20674;-51
2022/04/07 07:14:28;;;;;;;20.53;7.20;;;;;;;;;;4464613;32;20402;-53
2022/04/07 07:16:54;;;;;;;14.90;5.30;;;;;;;;;;4464769;32;20726;-53
2022/04/07 07:19:24;;;;;;;12.80;7.33;;;;;;;;;;4464820;32;20404;-53
2022/04/07 07:21:50;;;;;;;29.93;6.30;;;;;;;;;;4463133;32;20354;-53
2022/04/07 07:24:15;;;;;;;9.40;5.83;;;;;;;;;;4456808;32;20268;-53
2022/04/07 07:26:40;;;;;;;7.90;5.37;;;;;;;;;;4452629;32;20329;-54
2022/04/07 07:29:06;;;;;;;17.00;6.83;;;;;;;;;;4449297;32;20350;-55
2022/04/07 07:31:33;;;;;;;12.23;6.07;;;;;;;;;;4457426;32;20208;-52
2022/04/07 07:33:59;;;;;;;25.60;7.47;;;;;;;;;;4464668;32;20303;-53
2022/04/07 07:36:25;;;;;;;14.07;6.37;;;;;;;;;;4464356;32;20683;-53
2022/04/07 07:38:50;;;;;;;13.77;7.50;;;;;;;;;;4463402;32;20377;-53
2022/04/07 07:41:15;;;;;;;16.67;9.63;;;;;;;;;;4448600;32;20629;-53
2022/04/07 07:43:41;;;;;;;13.77;7.53;;;;;;;;;;4448887;32;20534;-53
2022/04/07 07:46:06;;;;;;;19.90;9.10;;;;;;;;;;4448776;32;20291;-53
2022/04/07 07:48:32;;;;;;;24.13;6.37;;;;;;;;;;4448642;32;20332;-53
2022/04/07 07:50:58;;;;;;;14.03;7.07;;;;;;;;;;4448598;32;20409;-53
2022/04/07 07:53:24;;;;;;;16.20;9.07;;;;;;;;;;4448618;32;20224;-53
2022/04/07 07:55:50;;;;;;;27.47;9.33;;;;;;;;;;4448195;32;20283;-53
2022/04/07 07:58:15;;;;;;;25.60;10.73;;;;;;;;;;4448489;32;20330;-51
2022/04/07 08:00:41;;;;;;;18.37;8.23;;;;;;;;;;4450898;32;20335;-54
2022/04/07 08:03:07;;;;;;;34.93;8.63;;;;;;;;;;4448241;32;20225;-53
2022/04/07 08:05:33;;;;;;;15.27;6.67;;;;;;;;;;4452609;32;20299;-55
2022/04/07 08:07:59;;;;;;;34.57;6.73;;;;;;;;;;4448306;32;20267;-52
2022/04/07 08:10:24;;;;;;;19.33;7.70;;;;;;;;;;4448034;32;20279;-52
2022/04/07 08:12:49;;;;;;;21.97;8.20;;;;;;;;;;4461304;32;20323;-53
2022/04/07 08:15:15;;;;;;;22.97;9.63;;;;;;;;;;4463705;32;20379;-53
2022/04/07 08:17:40;;;;;;;29.47;9.47;;;;;;;;;;4463652;32;20224;-52
2022/04/07 08:20:07;;;;;;;24.97;9.10;;;;;;;;;;4463883;32;20295;-52
2022/04/07 08:22:33;;;;;;;27.57;9.40;;;;;;;;;;4462945;32;20645;-52
2022/04/07 08:24:58;;;;;;;27.57;10.93;;;;;;;;;;4449233;32;20329;-54
2022/04/07 08:27:24;;;;;;;14.60;7.97;;;;;;;;;;4448171;32;20200;-52
2022/04/07 08:29:50;;;;;;;17.57;8.03;;;;;;;;;;4448192;32;20366;-54
2022/04/07 08:32:16;;;;;;;29.70;9.18;;;;;;;;;;4446261;32;20251;-54
2022/04/07 08:34:41;;;;;;;21.13;6.50;;;;;;;;;;4450264;32;20782;-54
2022/04/07 08:37:07;;;;;;;19.43;6.33;;;;;;;;;;4462596;32;20286;-54
2022/04/07 08:39:32;;;;;;;13.63;5.20;;;;;;;;;;4461503;32;20805;-52
2022/04/07 08:41:59;;;;;;;21.33;5.78;;;;;;;;;;4460029;32;20268;-53
2022/04/07 08:44:31;;;;;;;14.73;5.62;;;;;;;;;;4447545;32;20236;-52
2022/04/07 08:46:57;;;;;;;23.27;6.93;;;;;;;;;;4447767;32;20288;-52
2022/04/07 08:49:25;;;;;;;22.77;7.23;;;;;;;;;;4445833;32;20872;-52
2022/04/07 08:51:52;;;;;;;20.60;6.93;;;;;;;;;;4445491;32;20637;-52
2022/04/07 08:54:19;;;;;;;22.90;8.83;;;;;;;;;;4445637;32;20236;-53
2022/04/07 08:56:45;;;;;;;26.20;7.87;;;;;;;;;;4445818;32;20235;-54
2022/04/07 08:59:11;;;;;;;15.37;7.47;;;;;;;;;;4445896;32;20311;-54
2022/04/07 09:01:36;;;;;;;18.87;5.07;;;;;;;;;;4448746;32;20327;-55
2022/04/07 09:04:02;;;;;;;31.17;6.07;;;;;;;;;;4445978;32;20240;-55
2022/04/07 09:06:29;;;;;;;34.73;7.40;;;;;;;;;;4451774;32;20553;-55
2022/04/07 09:08:55;;;;;;;26.30;5.97;;;;;;;;;;4451301;32;20448;-55
2022/04/07 09:11:21;;;;;;;16.73;7.33;;;;;;;;;;4454971;32;20545;-54
2022/04/07 09:13:47;;;;;;;25.10;5.10;;;;;;;;;;4462773;32;20765;-56
2022/04/07 09:16:15;;;;;;;15.43;5.50;;;;;;;;;;4461483;32;20251;-56
2022/04/07 09:18:41;;;;;;;17.07;5.17;;;;;;;;;;4462761;32;20472;-54
2022/04/07 09:21:22;;;;;;;19.13;4.93;;;;;;;;;;4462374;32;20238;-54
2022/04/07 09:23:47;;;;;;;19.07;5.07;;;;;;;;;;4462401;32;20735;-54
2022/04/07 09:26:15;;;;;;;16.70;5.17;;;;;;;;;;4462626;32;20303;-54
2022/04/07 09:28:41;;;;;;;10.40;3.13;;;;;;;;;;4461352;32;20701;-55
2022/04/07 09:31:12;;;;;;;9.83;4.10;;;;;;;;;;4457034;32;20295;-53
2022/04/07 09:33:38;;;;;;;21.37;4.77;;;;;;;;;;4446980;32;20296;-54
2022/04/07 09:36:07;;;;;;;15.60;5.63;;;;;;;;;;4445662;32;20318;-54
2022/04/07 09:38:34;;;;;;;16.93;5.23;;;;;;;;;;4446953;32;20260;-54
2022/04/07 09:41:08;;;;;;;15.67;6.17;;;;;;;;;;4446776;32;20303;-54
2022/04/07 09:43:51;;;;;;;20.20;6.10;;;;;;;;;;4446418;32;20259;-55
2022/04/07 09:46:18;;;;;;;19.23;7.83;;;;;;;;;;4446949;32;20196;-54
2022/04/07 09:49:12;;;;;;;18.03;7.00;;;;;;;;;;4446735;32;20575;-54
2022/04/07 09:51:48;;;;;;;18.33;6.77;;;;;;;;;;4444676;32;20263;-54
2022/04/07 09:54:16;;;;;;;25.50;7.47;;;;;;;;;;4446753;32;20631;-54
2022/04/07 09:56:43;;;;;;;15.50;5.43;;;;;;;;;;4447048;32;20265;-54
2022/04/07 09:59:09;;;;;;;26.23;7.17;;;;;;;;;;4446828;32;20299;-54
2022/04/07 10:01:38;;;;;;;19.00;6.17;;;;;;;;;;4448850;32;20242;-54
2022/04/07 10:04:05;;;;;;;18.90;6.30;;;;;;;;;;4445553;32;20235;-54
2022/04/07 10:06:33;;;;;;;15.07;6.37;;;;;;;;;;4451400;32;20341;-54
2022/04/07 10:09:03;;;;;;;20.50;7.50;;;;;;;;;;4446640;32;20374;-55
2022/04/07 10:11:31;;;;;;;20.00;5.77;;;;;;;;;;4451161;32;20242;-54
2022/04/07 10:13:57;;;;;;;21.60;5.87;;;;;;;;;;4462227;32;20370;-54
2022/04/07 10:16:22;;;;;;;24.53;5.60;;;;;;;;;;4461681;32;20724;-55
2022/04/07 10:19:01;;;;;;;14.10;6.20;;;;;;;;;;4462126;32;20232;-55
2022/04/07 10:22:01;;;;;;;29.63;8.97;;;;;;;;;;4462047;32;20292;-54
2022/04/07 10:24:26;;;;;;;13.73;5.83;;;;;;;;;;4461978;32;20424;-54
2022/04/07 10:26:53;;;;;;;13.47;5.00;;;;;;;;;;4458786;32;20308;-55
2022/04/07 10:29:22;;;;;;;15.33;6.13;;;;;;;;;;4446626;32;20284;-54
2022/04/07 10:32:12;;;;;;;19.53;6.33;;;;;;;;;;4446303;32;20244;-55
2022/04/07 10:34:42;;;;;;;21.57;7.93;;;;;;;;;;4446340;32;20637;-54
2022/04/07 10:37:09;;;;;;;18.20;6.53;;;;;;;;;;4446114;32;20288;-53
2022/04/07 10:39:39;;;;;;;27.03;7.77;;;;;;;;;;4446048;32;20245;-54
2022/04/07 10:42:05;;;;;;;27.00;8.23;;;;;;;;;;4446250;32;20250;-54
2022/04/07 10:44:33;;;;;;;25.43;8.10;;;;;;;;;;4446821;32;20318;-56
2022/04/07 10:47:03;;;;;;;23.60;7.13;;;;;;;;;;4448959;32;20235;-55
2022/04/07 10:49:30;;;;;;;21.37;7.90;;;;;;;;;;4449296;32;20312;-55
2022/04/07 10:51:58;;;;;;;25.77;9.53;;;;;;;;;;4447646;32;20240;-54
2022/04/07 10:54:28;;;;;;;24.97;7.67;;;;;;;;;;4449197;32;20641;-54
2022/04/07 10:56:56;;;;;;;11.40;5.43;;;;;;;;;;4447938;32;20506;-54
2022/04/07 10:59:26;;;;;;;21.57;6.10;;;;;;;;;;4449368;32;20259;-55
2022/04/07 11:01:56;;;;;;;27.00;8.00;;;;;;;;;;4449876;32;20398;-55
2022/04/07 11:04:21;;;;;;;15.77;7.67;;;;;;;;;;4449038;32;20293;-55
2022/04/07 11:07:02;;;;;;;25.90;6.93;;;;;;;;;;4452150;32;20224;-54
2022/04/07 11:09:54;;;;;;;20.73;6.43;;;;;;;;;;4448949;32;20273;-55
2022/04/07 11:12:31;;;;;;;17.87;5.80;;;;;;;;;;4450352;32;20220;-54
2022/04/07 11:15:03;;;;;;;19.70;5.77;;;;;;;;;;4461376;32;20294;-57
2022/04/07 11:17:32;;;;;;;25.30;6.33;;;;;;;;;;4461956;32;20740;-55
2022/04/07 11:20:15;;;;;;;27.87;5.70;;;;;;;;;;4462762;32;20495;-54
2022/04/07 11:22:47;;;;;;;24.73;5.67;;;;;;;;;;4463555;32;20323;-55
2022/04/07 11:25:23;;;;;;;17.70;6.87;;;;;;;;;;4447398;32;20224;-56
2022/04/07 11:28:04;;;;;;;21.97;6.77;;;;;;;;;;4447384;32;20291;-54
2022/04/07 11:30:37;;;;;;;27.07;5.83;;;;;;;;;;4449183;32;20327;-55
2022/04/07 11:33:27;;;;;;;21.03;6.37;;;;;;;;;;4448777;32;20248;-55
2022/04/07 11:36:07;;;;;;;18.30;6.70;;;;;;;;;;4448694;32;20246;-55
2022/04/07 11:38:35;;;;;;;23.60;6.17;;;;;;;;;;4448790;32;20264;-55
2022/04/07 11:41:09;;;;;;;29.30;6.40;;;;;;;;;;4447261;32;20817;-56
2022/04/07 11:43:37;;;;;;;25.20;6.10;;;;;;;;;;4448503;32;20236;-55
2022/04/07 11:46:04;;;;;;;20.27;5.97;;;;;;;;;;4448497;32;20244;-55
2022/04/07 11:48:38;;;;;;;20.40;6.17;;;;;;;;;;4448454;32;20244;-55
2022/04/07 11:51:17;;;;;;;20.90;6.23;;;;;;;;;;4448346;32;20231;-55
2022/04/07 11:53:52;;;;;;;18.07;6.30;;;;;;;;;;4448598;32;20319;-55
2022/04/07 11:56:22;;;;;;;22.57;5.73;;;;;;;;;;4447748;32;20347;-56
2022/04/07 11:58:54;;;;;;;30.43;7.13;;;;;;;;;;4448561;32;20232;-57
2022/04/07 12:01:19;;;;;;;21.80;5.53;;;;;;;;;;4451064;32;20695;-56
2022/04/07 12:03:45;;;;;;;24.83;5.78;;;;;;;;;;4448431;32;20229;-56
2022/04/07 12:06:10;;;;;;;22.20;6.40;;;;;;;;;;4452950;32;20314;-55
2022/04/07 12:08:36;;;;;;;19.23;7.17;;;;;;;;;;4452725;32;20240;-55
2022/04/07 12:11:03;;;;;;;17.27;4.75;;;;;;;;;;4462182;32;20287;-55
2022/04/07 12:13:29;;;;;;;14.80;5.45;;;;;;;;;;4448363;32;20564;-56
2022/04/07 12:15:54;;;;;;;25.55;7.53;;;;;;;;;;4462793;32;20373;-56
2022/04/07 12:18:27;;;;;;;17.80;5.45;;;;;;;;;;4463737;32;20743;-55
2022/04/07 12:21:01;;;;;;;30.62;6.12;;;;;;;;;;4463357;32;20266;-55
2022/04/07 12:23:28;;;;;;;37.65;6.97;;;;;;;;;;4463495;32;20310;-56
2022/04/07 12:26:01;;;;;;;26.98;5.40;;;;;;;;;;4463495;32;20240;-56
2022/04/07 12:28:38;;;;;;;20.60;5.30;;;;;;;;;;4463304;32;20271;-55
2022/04/07 12:31:21;;;;;;;23.15;4.82;;;;;;;;;;4463269;32;20203;-55
2022/04/07 12:33:48;;;;;;;22.85;5.55;;;;;;;;;;4447534;32;20300;-55
2022/04/07 12:36:16;;;;;;;39.67;11.18;;;;;;;;;;4448195;32;20213;-54
2022/04/07 12:38:58;;;;;;;23.98;6.70;;;;;;;;;;4448189;32;20256;-55
2022/04/07 12:41:49;;;;;;;27.40;5.72;;;;;;;;;;4447925;32;20236;-55
2022/04/07 12:44:23;;;;;;;36.85;6.30;;;;;;;;;;4447952;32;20232;-55
2022/04/07 12:46:58;;;;;;;25.27;6.12;;;;;;;;;;4449064;32;20645;-55
2022/04/07 12:49:31;;;;;;;17.73;4.25;;;;;;;;;;4449241;32;20615;-56
2022/04/07 12:52:11;;;;;;;12.52;4.45;;;;;;;;;;4448777;32;20236;-55
2022/04/07 12:54:53;;;;;;;22.42;5.50;;;;;;;;;;4448776;32;20193;-55
2022/04/07 12:57:19;;;;;;;22.70;5.15;;;;;;;;;;4447557;32;20236;-55
2022/04/07 12:59:58;;;;;;;18.35;5.05;;;;;;;;;;4449227;32;20381;-56
2022/04/07 13:02:24;;;;;;;16.65;4.65;;;;;;;;;;4462946;32;20223;-55
2022/04/07 13:04:54;;;;;;;32.85;6.05;;;;;;;;;;4462842;32;20740;-55
2022/04/07 13:07:21;;;;;;;40.60;5.50;;;;;;;;;;4448038;32;20212;-55
2022/04/07 13:09:48;;;;;;;18.10;5.23;;;;;;;;;;4448660;32;20231;-54
2022/04/07 13:12:15;;;;;;;26.10;5.50;;;;;;;;;;4457768;32;20208;-54
2022/04/07 13:14:44;;;;;;;22.87;5.75;;;;;;;;;;4464247;32;20639;-55
2022/04/07 13:17:11;;;;;;;20.77;5.97;;;;;;;;;;4464142;32;20363;-55
2022/04/07 13:19:37;;;;;;;21.45;6.60;;;;;;;;;;4463803;32;20631;-55
2022/04/07 13:22:03;;;;;;;14.98;6.37;;;;;;;;;;4464106;32;20212;-55
2022/04/07 13:24:30;;;;;;;23.92;6.85;;;;;;;;;;4464030;32;20720;-55
2022/04/07 13:26:55;;;;;;;20.83;6.27;;;;;;;;;;4464386;32;20225;-55
2022/04/07 13:29:23;;;;;;;24.98;7.57;;;;;;;;;;4455058;32;20276;-54
2022/04/07 13:31:49;;;;;;;32.10;5.95;;;;;;;;;;4448473;32;20200;-54
2022/04/07 13:34:14;;;;;;;18.55;5.90;;;;;;;;;;4448730;32;20263;-55
2022/04/07 13:36:40;;;;;;;19.85;3.72;;;;;;;;;;4448517;32;20379;-56
2022/04/07 13:39:06;;;;;;;16.02;4.62;;;;;;;;;;4447083;32;20337;-55
2022/04/07 13:41:32;;;;;;;15.77;5.10;;;;;;;;;;4448451;32;20201;-55
2022/04/07 13:43:58;;;;;;;10.20;3.80;;;;;;;;;;4447664;32;20308;-55
2022/04/07 13:46:23;;;;;;;22.05;4.28;;;;;;;;;;4448030;32;20208;-55
2022/04/07 13:48:49;;;;;;;11.57;3.85;;;;;;;;;;4448560;32;20262;-55
2022/04/07 13:51:15;;;;;;;17.80;4.82;;;;;;;;;;4447953;32;20223;-55
2022/04/07 13:53:41;;;;;;;19.12;5.85;;;;;;;;;;4447972;32;20260;-55
2022/04/07 13:56:06;;;;;;;38.08;7.12;;;;;;;;;;4446984;32;20821;-55
2022/04/07 13:58:32;;;;;;;15.23;7.23;;;;;;;;;;4447476;32;20290;-55
2022/04/07 14:00:57;;;;;;;27.08;9.60;;;;;;;;;;4452010;32;20224;-55
2022/04/07 14:03:23;;;;;;;20.17;4.47;;;;;;;;;;4445042;32;20228;-55
2022/04/07 14:05:48;;;;;;;11.88;4.65;;;;;;;;;;4450806;32;20341;-57
2022/04/07 14:08:14;;;;;;;22.37;5.62;;;;;;;;;;4446778;32;20242;-55
2022/04/07 14:10:41;;;;;;;18.08;5.53;;;;;;;;;;4447212;32;20299;-55
2022/04/07 14:13:07;;;;;;;22.30;5.45;;;;;;;;;;4446929;32;20390;-55
2022/04/07 14:15:33;;;;;;;22.60;4.65;;;;;;;;;;4446511;32;20287;-56
2022/04/07 14:17:59;;;;;;;26.50;5.12;;;;;;;;;;4446992;32;20594;-54
2022/04/07 14:20:25;;;;;;;27.08;4.90;;;;;;;;;;4448650;32;20295;-55
2022/04/07 14:22:51;;;;;;;15.73;5.75;;;;;;;;;;4448744;32;20319;-54
2022/04/07 14:25:17;;;;;;;28.05;6.12;;;;;;;;;;4448098;32;20776;-55
2022/04/07 14:27:42;;;;;;;33.30;7.05;;;;;;;;;;4448182;32;20236;-55
2022/04/07 14:30:08;;;;;;;15.50;4.20;;;;;;;;;;4447842;32;20307;-57
2022/04/07 14:32:34;;;;;;;21.65;5.80;;;;;;;;;;4448327;32;20259;-55